Terminal Aerodrome Forecast
Issued by NWS North Platte, NE

Home | Current Version | Previous Version | Text Only | Print | Product List | Glossary On
Versions: 1 2 3 4 5 6 7 8 9 10 11 12 13 14 15 16 17
436
FTUS43 KLBF 171120
TAFVTN
TAF
KVTN 171120Z 1712/1812 26004KT P6SM FEW090
     FM171400 18004KT P6SM SCT080
     FM171700 15008KT P6SM BKN080
     FM172000 16012KT P6SM BKN080
     FM180300 16009KT P6SM BKN200
     FM180800 19008KT P6SM BKN150=

USA.gov is the U.S. government's official web portal to all federal, state and local government web resources and services.